Sandspit Airport
CYZP : now visible

Airfield :











YOU CAN JOIN US ON...

 
LOGIN :

Register | Disclaimer

   EN    FR    IT 

 









Legend :    VFR   Marginal VFR   IFR   Intensive IFR   Very Intensive IFR
Visi :
Ceiling :
>= 8 km
>= 3000ft
5 to 8 km
1000 to 3000 ft
1500m to 5 km
500 to 1000 ft
800 to 1500m
200 to 500 ft
< 800m
< 200 ft
Symbols :   Thunderstorms  Fog  Heavy snow  Heavy precipitations  Wind > 20 kt






- Airport Elevation : 21 ft
- IATA code : YZP


CYZP - Sandspit

CURRENT METAR :
  • 050634Z AUTO 16008KT 9SM -RA OVC065 10/07 A2993 RMK SLP135

EXPIRED METARs :
  • 050600Z AUTO 18008KT 9SM OVC065 10/07 A2993 RMK SLP137
  • 050500Z AUTO 15014KT 9SM BKN055 OVC066 11/07 A2994 RMK SLP139
  • 050417Z AUTO 15017KT 9SM BKN055 OVC069 11/08 A2994 RMK SLP139
  • 050406Z AUTO 15014KT 9SM -RA SCT050 OVC060 11/07 A2994 RMK SLP139
  • 050336Z AUTO 15014KT 9SM BKN050 OVC095 11/07 A2994 RMK SLP141

TAF TAF CYZP
Valid from the 05 at 01:00 until the 05 at 13:00 UTC


050038Z 0501/0513 VRB03KT P6SM SCT030 BKN060
TEMPO 0501/0507 P6SM -SHRA BKN020 OVC030
BECMG 0503/0505 16012G22KT
FM050700 15012KT 6SM -SHRA BR SCT006 OVC025
TEMPO 0507/0513 2SM -SHRA BR BKN006 OVC012 RMK FCST BASED ON AUTO OBS. NXT FCST BY 050700Z
CZVR FIR / North America



MET'MAP, your aeronautical weather chart ! - Copyright ORBIFLY December 2007 - Disclaimer

ORBIFLY MET'MAP TEAM :

Programming & Development : Alexandra Zaïnal
Concept & original design : Baudouin d'Aumeries
Assistance for programming : Marc-Olivier Méhu
Technical & hardware support : Manuel Goepfert

Contact : metmap@orbifly.com




SOURCES & CREDITS :

   NOAA       Earth
Advisory